sensor_id;sensor_type;location;lat;lon;timestamp;temperature;humidity
21508;DHT22;10915;54.352;9.074;2023-02-12T00:00:58;8.10;99.90
21508;DHT22;10915;54.352;9.074;2023-02-12T00:03:24;8.10;99.90
21508;DHT22;10915;54.352;9.074;2023-02-12T00:05:50;8.00;99.90
21508;DHT22;10915;54.352;9.074;2023-02-12T00:08:15;8.10;99.90
21508;DHT22;10915;54.352;9.074;2023-02-12T00:10:43;8.10;99.90
21508;DHT22;10915;54.352;9.074;2023-02-12T00:13:10;8.10;99.90
21508;DHT22;10915;54.352;9.074;2023-02-12T00:15:40;8.10;99.90
21508;DHT22;10915;54.352;9.074;2023-02-12T00:18:06;8.10;99.90
21508;DHT22;10915;54.352;9.074;2023-02-12T00:20:32;8.00;99.90
21508;DHT22;10915;54.352;9.074;2023-02-12T00:22:58;8.00;99.90
21508;DHT22;10915;54.352;9.074;2023-02-12T00:25:24;8.00;99.90
21508;DHT22;10915;54.352;9.074;2023-02-12T00:27:49;8.00;99.90
21508;DHT22;10915;54.352;9.074;2023-02-12T00:30:15;8.00;99.90
21508;DHT22;10915;54.352;9.074;2023-02-12T00:32:41;8.00;99.90
21508;DHT22;10915;54.352;9.074;2023-02-12T00:35:06;8.00;99.90
21508;DHT22;10915;54.352;9.074;2023-02-12T00:37:32;8.10;99.90
21508;DHT22;10915;54.352;9.074;2023-02-12T00:39:58;8.10;99.90
21508;DHT22;10915;54.352;9.074;2023-02-12T00:42:24;8.10;99.90
21508;DHT22;10915;54.352;9.074;2023-02-12T00:44:49;8.10;99.90
21508;DHT22;10915;54.352;9.074;2023-02-12T00:47:15;8.10;99.90
21508;DHT22;10915;54.352;9.074;2023-02-12T00:49:41;8.10;99.90
21508;DHT22;10915;54.352;9.074;2023-02-12T00:52:07;8.10;99.90
21508;DHT22;10915;54.352;9.074;2023-02-12T00:54:32;8.10;99.90
21508;DHT22;10915;54.352;9.074;2023-02-12T00:56:58;8.10;99.90
21508;DHT22;10915;54.352;9.074;2023-02-12T00:59:25;8.00;99.90
21508;DHT22;10915;54.352;9.074;2023-02-12T01:01:52;8.00;99.90
21508;DHT22;10915;54.352;9.074;2023-02-12T01:04:18;8.00;99.90
21508;DHT22;10915;54.352;9.074;2023-02-12T01:06:44;8.00;99.90
21508;DHT22;10915;54.352;9.074;2023-02-12T01:09:10;8.00;99.90
21508;DHT22;10915;54.352;9.074;2023-02-12T01:11:37;8.00;99.90
21508;DHT22;10915;54.352;9.074;2023-02-12T01:14:04;8.00;99.90
21508;DHT22;10915;54.352;9.074;2023-02-12T01:16:30;8.10;99.90
21508;DHT22;10915;54.352;9.074;2023-02-12T01:19:01;8.10;99.90
21508;DHT22;10915;54.352;9.074;2023-02-12T01:21:29;8.00;99.90
21508;DHT22;10915;54.352;9.074;2023-02-12T01:23:56;8.00;99.90
21508;DHT22;10915;54.352;9.074;2023-02-12T01:26:22;8.00;99.90
21508;DHT22;10915;54.352;9.074;2023-02-12T01:28:51;8.00;99.90
21508;DHT22;10915;54.352;9.074;2023-02-12T01:31:21;8.00;99.90
21508;DHT22;10915;54.352;9.074;2023-02-12T01:33:48;8.00;99.90
21508;DHT22;10915;54.352;9.074;2023-02-12T01:36:14;7.90;99.90
21508;DHT22;10915;54.352;9.074;2023-02-12T01:38:40;7.90;99.90
21508;DHT22;10915;54.352;9.074;2023-02-12T01:41:12;7.90;99.90
21508;DHT22;10915;54.352;9.074;2023-02-12T01:43:38;7.90;99.90
21508;DHT22;10915;54.352;9.074;2023-02-12T01:46:04;7.80;99.90
21508;DHT22;10915;54.352;9.074;2023-02-12T01:48:41;7.80;99.90
21508;DHT22;10915;54.352;9.074;2023-02-12T01:51:11;7.80;99.90
21508;DHT22;10915;54.352;9.074;2023-02-12T01:53:42;7.80;99.90
21508;DHT22;10915;54.352;9.074;2023-02-12T01:56:09;7.70;99.90
21508;DHT22;10915;54.352;9.074;2023-02-12T01:58:38;7.70;99.90
21508;DHT22;10915;54.352;9.074;2023-02-12T02:01:07;7.70;99.90
21508;DHT22;10915;54.352;9.074;2023-02-12T02:03:37;7.70;99.90
21508;DHT22;10915;54.352;9.074;2023-02-12T02:06:17;7.60;99.90
21508;DHT22;10915;54.352;9.074;2023-02-12T02:08:44;7.60;99.90
21508;DHT22;10915;54.352;9.074;2023-02-12T02:11:10;7.60;99.90
21508;DHT22;10915;54.352;9.074;2023-02-12T02:13:56;7.60;99.90
21508;DHT22;10915;54.352;9.074;2023-02-12T02:25:20;7.60;99.90
21508;DHT22;10915;54.352;9.074;2023-02-12T02:38:35;7.60;99.90
21508;DHT22;10915;54.352;9.074;2023-02-12T02:43:47;7.50;99.90
21508;DHT22;10915;54.352;9.074;2023-02-12T02:46:22;7.50;99.90
21508;DHT22;10915;54.352;9.074;2023-02-12T02:48:52;7.50;99.90
21508;DHT22;10915;54.352;9.074;2023-02-12T02:51:23;7.50;99.90
21508;DHT22;10915;54.352;9.074;2023-02-12T02:54:01;7.50;99.90
21508;DHT22;10915;54.352;9.074;2023-02-12T02:56:29;7.50;99.90
21508;DHT22;10915;54.352;9.074;2023-02-12T02:59:01;7.50;99.90
21508;DHT22;10915;54.352;9.074;2023-02-12T03:01:35;7.50;99.90
21508;DHT22;10915;54.352;9.074;2023-02-12T03:04:16;7.50;99.90
21508;DHT22;10915;54.352;9.074;2023-02-12T03:09:44;7.50;99.90
21508;DHT22;10915;54.352;9.074;2023-02-12T03:12:19;7.60;99.90
21508;DHT22;10915;54.352;9.074;2023-02-12T03:17:48;7.60;99.90
21508;DHT22;10915;54.352;9.074;2023-02-12T03:20:18;7.50;99.90
21508;DHT22;10915;54.352;9.074;2023-02-12T03:22:54;7.50;99.90
21508;DHT22;10915;54.352;9.074;2023-02-12T03:25:51;7.50;99.90
21508;DHT22;10915;54.352;9.074;2023-02-12T03:28:25;7.50;99.90
21508;DHT22;10915;54.352;9.074;2023-02-12T03:36:55;7.50;99.90
21508;DHT22;10915;54.352;9.074;2023-02-12T03:42:09;7.50;99.90
21508;DHT22;10915;54.352;9.074;2023-02-12T03:50:20;7.60;99.90
21508;DHT22;10915;54.352;9.074;2023-02-12T03:52:49;7.60;99.90
21508;DHT22;10915;54.352;9.074;2023-02-12T03:55:15;7.60;99.90
21508;DHT22;10915;54.352;9.074;2023-02-12T03:57:48;7.50;99.90
21508;DHT22;10915;54.352;9.074;2023-02-12T04:00:19;7.50;99.90
21508;DHT22;10915;54.352;9.074;2023-02-12T04:02:45;7.50;99.90
21508;DHT22;10915;54.352;9.074;2023-02-12T04:05:26;7.50;99.90
21508;DHT22;10915;54.352;9.074;2023-02-12T04:07:53;7.40;99.90
21508;DHT22;10915;54.352;9.074;2023-02-12T04:10:28;7.40;99.90
21508;DHT22;10915;54.352;9.074;2023-02-12T04:18:35;7.30;99.90
21508;DHT22;10915;54.352;9.074;2023-02-12T04:36:30;7.00;99.90
21508;DHT22;10915;54.352;9.074;2023-02-12T04:39:00;6.90;99.90
21508;DHT22;10915;54.352;9.074;2023-02-12T04:41:29;6.90;99.90
21508;DHT22;10915;54.352;9.074;2023-02-12T04:43:55;6.90;99.90
21508;DHT22;10915;54.352;9.074;2023-02-12T04:46:21;6.90;99.90
21508;DHT22;10915;54.352;9.074;2023-02-12T04:48:56;6.90;99.90
21508;DHT22;10915;54.352;9.074;2023-02-12T04:51:22;6.90;99.90
21508;DHT22;10915;54.352;9.074;2023-02-12T04:53:49;6.90;99.90
21508;DHT22;10915;54.352;9.074;2023-02-12T04:56:15;6.90;99.90
21508;DHT22;10915;54.352;9.074;2023-02-12T04:58:42;6.90;99.90
21508;DHT22;10915;54.352;9.074;2023-02-12T05:01:08;6.90;99.90
21508;DHT22;10915;54.352;9.074;2023-02-12T05:03:35;6.90;99.90
21508;DHT22;10915;54.352;9.074;2023-02-12T05:06:05;6.90;99.90
21508;DHT22;10915;54.352;9.074;2023-02-12T05:08:31;6.90;99.90
21508;DHT22;10915;54.352;9.074;2023-02-12T05:11:01;6.90;99.90
21508;DHT22;10915;54.352;9.074;2023-02-12T05:13:27;6.90;99.90
21508;DHT22;10915;54.352;9.074;2023-02-12T05:15:53;6.90;99.90
21508;DHT22;10915;54.352;9.074;2023-02-12T05:18:18;6.90;99.90
21508;DHT22;10915;54.352;9.074;2023-02-12T05:20:44;6.90;99.90
21508;DHT22;10915;54.352;9.074;2023-02-12T05:23:10;6.90;99.90
21508;DHT22;10915;54.352;9.074;2023-02-12T05:25:35;6.90;99.90
21508;DHT22;10915;54.352;9.074;2023-02-12T05:28:01;6.90;99.90
21508;DHT22;10915;54.352;9.074;2023-02-12T05:30:27;6.90;99.90
21508;DHT22;10915;54.352;9.074;2023-02-12T05:32:52;6.80;99.90
21508;DHT22;10915;54.352;9.074;2023-02-12T05:35:18;6.70;99.90
21508;DHT22;10915;54.352;9.074;2023-02-12T05:37:44;6.80;99.90
21508;DHT22;10915;54.352;9.074;2023-02-12T05:40:10;6.80;99.90
21508;DHT22;10915;54.352;9.074;2023-02-12T05:42:35;6.70;99.90
21508;DHT22;10915;54.352;9.074;2023-02-12T05:45:01;6.70;99.90
21508;DHT22;10915;54.352;9.074;2023-02-12T05:47:28;6.70;99.90
21508;DHT22;10915;54.352;9.074;2023-02-12T05:49:53;6.80;99.90
21508;DHT22;10915;54.352;9.074;2023-02-12T05:52:19;6.80;99.90
21508;DHT22;10915;54.352;9.074;2023-02-12T05:54:48;6.80;99.90
21508;DHT22;10915;54.352;9.074;2023-02-12T05:57:14;6.80;99.90
21508;DHT22;10915;54.352;9.074;2023-02-12T05:59:40;6.80;99.90
21508;DHT22;10915;54.352;9.074;2023-02-12T06:02:06;6.80;99.90
21508;DHT22;10915;54.352;9.074;2023-02-12T06:04:32;6.80;99.90
21508;DHT22;10915;54.352;9.074;2023-02-12T06:06:59;6.80;99.90
21508;DHT22;10915;54.352;9.074;2023-02-12T06:09:25;6.80;99.90
21508;DHT22;10915;54.352;9.074;2023-02-12T06:11:51;6.80;99.90
21508;DHT22;10915;54.352;9.074;2023-02-12T06:14:18;6.90;99.90
21508;DHT22;10915;54.352;9.074;2023-02-12T06:16:49;6.90;99.90
21508;DHT22;10915;54.352;9.074;2023-02-12T06:19:16;6.90;99.90
21508;DHT22;10915;54.352;9.074;2023-02-12T06:21:42;6.90;99.90
21508;DHT22;10915;54.352;9.074;2023-02-12T06:24:10;6.90;99.90
21508;DHT22;10915;54.352;9.074;2023-02-12T06:26:36;6.90;99.90
21508;DHT22;10915;54.352;9.074;2023-02-12T06:29:02;6.90;99.90
21508;DHT22;10915;54.352;9.074;2023-02-12T06:31:29;6.90;99.90
21508;DHT22;10915;54.352;9.074;2023-02-12T06:33:59;6.90;99.90
21508;DHT22;10915;54.352;9.074;2023-02-12T06:36:26;6.90;99.90
21508;DHT22;10915;54.352;9.074;2023-02-12T06:38:52;6.90;99.90
21508;DHT22;10915;54.352;9.074;2023-02-12T06:41:17;6.80;99.90
21508;DHT22;10915;54.352;9.074;2023-02-12T06:43:43;6.90;99.90
21508;DHT22;10915;54.352;9.074;2023-02-12T06:46:09;6.90;99.90
21508;DHT22;10915;54.352;9.074;2023-02-12T06:48:35;6.90;99.90
21508;DHT22;10915;54.352;9.074;2023-02-12T06:51:16;6.90;99.90
21508;DHT22;10915;54.352;9.074;2023-02-12T06:53:43;6.90;99.90
21508;DHT22;10915;54.352;9.074;2023-02-12T06:56:11;6.90;99.90
21508;DHT22;10915;54.352;9.074;2023-02-12T06:58:42;6.90;99.90
21508;DHT22;10915;54.352;9.074;2023-02-12T07:01:17;6.90;99.90
21508;DHT22;10915;54.352;9.074;2023-02-12T07:03:54;7.00;99.90
21508;DHT22;10915;54.352;9.074;2023-02-12T07:06:21;7.00;99.90
21508;DHT22;10915;54.352;9.074;2023-02-12T07:08:47;7.00;99.90
21508;DHT22;10915;54.352;9.074;2023-02-12T07:11:14;7.00;99.90
21508;DHT22;10915;54.352;9.074;2023-02-12T07:13:41;7.10;99.90
21508;DHT22;10915;54.352;9.074;2023-02-12T07:16:09;7.10;99.90
21508;DHT22;10915;54.352;9.074;2023-02-12T07:18:36;7.10;99.90
21508;DHT22;10915;54.352;9.074;2023-02-12T07:21:04;7.10;99.90
21508;DHT22;10915;54.352;9.074;2023-02-12T07:23:30;7.10;99.90
21508;DHT22;10915;54.352;9.074;2023-02-12T07:26:10;7.20;99.90
21508;DHT22;10915;54.352;9.074;2023-02-12T07:28:37;7.20;99.90
21508;DHT22;10915;54.352;9.074;2023-02-12T07:31:11;7.30;99.90
21508;DHT22;10915;54.352;9.074;2023-02-12T07:33:38;7.30;99.90
21508;DHT22;10915;54.352;9.074;2023-02-12T07:36:07;7.30;99.90
21508;DHT22;10915;54.352;9.074;2023-02-12T07:38:33;7.40;99.90
21508;DHT22;10915;54.352;9.074;2023-02-12T07:41:23;7.40;99.90
21508;DHT22;10915;54.352;9.074;2023-02-12T07:43:54;7.40;99.90
21508;DHT22;10915;54.352;9.074;2023-02-12T07:46:29;7.40;99.90
21508;DHT22;10915;54.352;9.074;2023-02-12T07:48:59;7.40;99.90
21508;DHT22;10915;54.352;9.074;2023-02-12T07:51:26;7.50;99.90
21508;DHT22;10915;54.352;9.074;2023-02-12T07:53:52;7.50;99.90
21508;DHT22;10915;54.352;9.074;2023-02-12T07:56:21;7.50;99.90
21508;DHT22;10915;54.352;9.074;2023-02-12T07:58:49;7.60;99.90
21508;DHT22;10915;54.352;9.074;2023-02-12T08:01:25;7.60;99.90
21508;DHT22;10915;54.352;9.074;2023-02-12T08:03:58;7.70;99.90
21508;DHT22;10915;54.352;9.074;2023-02-12T08:06:26;7.70;99.90
21508;DHT22;10915;54.352;9.074;2023-02-12T08:08:58;7.80;99.90
21508;DHT22;10915;54.352;9.074;2023-02-12T08:11:26;7.80;99.90
21508;DHT22;10915;54.352;9.074;2023-02-12T08:13:53;7.90;99.90
21508;DHT22;10915;54.352;9.074;2023-02-12T08:16:24;7.90;99.90
21508;DHT22;10915;54.352;9.074;2023-02-12T08:18:50;8.00;99.90
21508;DHT22;10915;54.352;9.074;2023-02-12T08:21:22;8.00;99.90
21508;DHT22;10915;54.352;9.074;2023-02-12T08:23:48;8.10;99.90
21508;DHT22;10915;54.352;9.074;2023-02-12T08:26:35;8.10;99.90
21508;DHT22;10915;54.352;9.074;2023-02-12T08:29:13;8.10;99.90
21508;DHT22;10915;54.352;9.074;2023-02-12T08:31:43;8.20;99.90
21508;DHT22;10915;54.352;9.074;2023-02-12T08:34:23;8.20;99.90
21508;DHT22;10915;54.352;9.074;2023-02-12T08:37:07;8.30;99.90
21508;DHT22;10915;54.352;9.074;2023-02-12T08:39:36;8.30;99.90
21508;DHT22;10915;54.352;9.074;2023-02-12T08:42:01;8.40;99.90
21508;DHT22;10915;54.352;9.074;2023-02-12T08:44:27;8.40;99.90
21508;DHT22;10915;54.352;9.074;2023-02-12T08:46:53;8.40;99.90
21508;DHT22;10915;54.352;9.074;2023-02-12T08:49:22;8.50;99.90
21508;DHT22;10915;54.352;9.074;2023-02-12T08:51:54;8.50;99.90
21508;DHT22;10915;54.352;9.074;2023-02-12T08:54:26;8.50;99.90
21508;DHT22;10915;54.352;9.074;2023-02-12T08:56:58;8.60;99.90
21508;DHT22;10915;54.352;9.074;2023-02-12T08:59:31;8.60;99.90
21508;DHT22;10915;54.352;9.074;2023-02-12T09:01:58;8.70;99.90
21508;DHT22;10915;54.352;9.074;2023-02-12T09:04:26;8.70;99.90
21508;DHT22;10915;54.352;9.074;2023-02-12T09:06:52;8.70;99.90
21508;DHT22;10915;54.352;9.074;2023-02-12T09:09:19;8.70;99.90
21508;DHT22;10915;54.352;9.074;2023-02-12T09:11:45;8.70;99.90
21508;DHT22;10915;54.352;9.074;2023-02-12T09:14:14;8.70;99.90
21508;DHT22;10915;54.352;9.074;2023-02-12T09:16:40;8.80;99.90
21508;DHT22;10915;54.352;9.074;2023-02-12T09:19:06;8.80;99.90
21508;DHT22;10915;54.352;9.074;2023-02-12T09:21:33;8.80;99.90
21508;DHT22;10915;54.352;9.074;2023-02-12T09:24:00;8.80;99.90
21508;DHT22;10915;54.352;9.074;2023-02-12T09:26:26;8.80;99.90
21508;DHT22;10915;54.352;9.074;2023-02-12T09:28:58;8.80;99.90
21508;DHT22;10915;54.352;9.074;2023-02-12T09:31:28;8.70;99.90
21508;DHT22;10915;54.352;9.074;2023-02-12T09:33:58;8.70;99.90
21508;DHT22;10915;54.352;9.074;2023-02-12T09:39:27;8.70;99.90
21508;DHT22;10915;54.352;9.074;2023-02-12T09:42:05;8.70;99.90
21508;DHT22;10915;54.352;9.074;2023-02-12T09:44:46;8.70;99.90
21508;DHT22;10915;54.352;9.074;2023-02-12T09:47:24;8.80;99.90
21508;DHT22;10915;54.352;9.074;2023-02-12T09:53:01;8.90;99.90
21508;DHT22;10915;54.352;9.074;2023-02-12T09:58:58;8.90;99.90
21508;DHT22;10915;54.352;9.074;2023-02-12T10:01:30;8.90;99.90
21508;DHT22;10915;54.352;9.074;2023-02-12T10:03:57;9.00;99.90
21508;DHT22;10915;54.352;9.074;2023-02-12T10:07:39;9.00;99.90
21508;DHT22;10915;54.352;9.074;2023-02-12T10:10:07;9.00;99.90
21508;DHT22;10915;54.352;9.074;2023-02-12T10:12:45;9.00;99.90
21508;DHT22;10915;54.352;9.074;2023-02-12T10:27:06;9.00;99.90
21508;DHT22;10915;54.352;9.074;2023-02-12T10:29:39;9.00;99.90
21508;DHT22;10915;54.352;9.074;2023-02-12T10:38:31;9.10;99.90
21508;DHT22;10915;54.352;9.074;2023-02-12T10:41:04;9.10;99.90
21508;DHT22;10915;54.352;9.074;2023-02-12T10:43:45;9.10;99.90
21508;DHT22;10915;54.352;9.074;2023-02-12T10:49:36;9.20;99.90
21508;DHT22;10915;54.352;9.074;2023-02-12T10:52:08;9.20;99.90
21508;DHT22;10915;54.352;9.074;2023-02-12T10:54:48;9.20;99.90
21508;DHT22;10915;54.352;9.074;2023-02-12T10:57:44;9.30;99.90
21508;DHT22;10915;54.352;9.074;2023-02-12T11:03:02;9.30;99.90
21508;DHT22;10915;54.352;9.074;2023-02-12T11:05:34;9.30;99.90
21508;DHT22;10915;54.352;9.074;2023-02-12T11:08:24;9.40;99.90
21508;DHT22;10915;54.352;9.074;2023-02-12T11:14:16;9.60;99.90
21508;DHT22;10915;54.352;9.074;2023-02-12T11:19:24;9.80;99.90
21508;DHT22;10915;54.352;9.074;2023-02-12T11:24:43;10.00;99.90
21508;DHT22;10915;54.352;9.074;2023-02-12T11:29:45;10.10;99.90
21508;DHT22;10915;54.352;9.074;2023-02-12T11:32:17;10.20;99.90
21508;DHT22;10915;54.352;9.074;2023-02-12T11:34:43;10.20;99.90
21508;DHT22;10915;54.352;9.074;2023-02-12T11:37:16;10.20;99.90
21508;DHT22;10915;54.352;9.074;2023-02-12T11:39:46;10.20;99.90
21508;DHT22;10915;54.352;9.074;2023-02-12T11:42:32;10.10;99.90
21508;DHT22;10915;54.352;9.074;2023-02-12T11:45:03;10.10;99.90
21508;DHT22;10915;54.352;9.074;2023-02-12T11:47:34;10.10;99.90
21508;DHT22;10915;54.352;9.074;2023-02-12T11:50:26;10.10;99.90
21508;DHT22;10915;54.352;9.074;2023-02-12T11:53:08;10.10;99.90
21508;DHT22;10915;54.352;9.074;2023-02-12T11:55:37;10.00;99.90
21508;DHT22;10915;54.352;9.074;2023-02-12T11:58:30;10.00;99.90
21508;DHT22;10915;54.352;9.074;2023-02-12T12:01:28;9.90;99.90
21508;DHT22;10915;54.352;9.074;2023-02-12T12:04:10;9.90;99.90
21508;DHT22;10915;54.352;9.074;2023-02-12T12:06:45;9.80;99.90
21508;DHT22;10915;54.352;9.074;2023-02-12T12:15:06;9.60;99.90
21508;DHT22;10915;54.352;9.074;2023-02-12T12:24:37;9.60;99.90
21508;DHT22;10915;54.352;9.074;2023-02-12T12:30:10;9.70;99.90
21508;DHT22;10915;54.352;9.074;2023-02-12T12:32:51;9.70;99.90
21508;DHT22;10915;54.352;9.074;2023-02-12T12:35:44;9.70;99.90
21508;DHT22;10915;54.352;9.074;2023-02-12T12:44:44;9.60;99.90
21508;DHT22;10915;54.352;9.074;2023-02-12T12:59:47;9.60;99.90
21508;DHT22;10915;54.352;9.074;2023-02-12T13:02:45;9.60;99.90
21508;DHT22;10915;54.352;9.074;2023-02-12T13:08:28;9.60;99.90
21508;DHT22;10915;54.352;9.074;2023-02-12T13:17:12;9.40;99.90
21508;DHT22;10915;54.352;9.074;2023-02-12T13:22:36;9.40;99.90
21508;DHT22;10915;54.352;9.074;2023-02-12T13:27:53;9.30;99.90
21508;DHT22;10915;54.352;9.074;2023-02-12T13:30:30;9.30;99.90
21508;DHT22;10915;54.352;9.074;2023-02-12T13:33:44;9.20;99.90
21508;DHT22;10915;54.352;9.074;2023-02-12T13:36:13;9.30;99.90
21508;DHT22;10915;54.352;9.074;2023-02-12T13:41:35;9.30;99.90
21508;DHT22;10915;54.352;9.074;2023-02-12T13:47:05;9.30;99.90
21508;DHT22;10915;54.352;9.074;2023-02-12T13:57:41;9.20;99.90
21508;DHT22;10915;54.352;9.074;2023-02-12T14:03:11;9.20;99.90
21508;DHT22;10915;54.352;9.074;2023-02-12T14:05:38;9.10;99.90
21508;DHT22;10915;54.352;9.074;2023-02-12T14:08:04;9.10;99.90
21508;DHT22;10915;54.352;9.074;2023-02-12T14:10:36;9.10;99.90
21508;DHT22;10915;54.352;9.074;2023-02-12T14:13:11;9.00;99.90
21508;DHT22;10915;54.352;9.074;2023-02-12T14:15:46;9.00;99.90
21508;DHT22;10915;54.352;9.074;2023-02-12T14:18:34;9.00;99.90
21508;DHT22;10915;54.352;9.074;2023-02-12T14:23:43;9.00;99.90
21508;DHT22;10915;54.352;9.074;2023-02-12T14:26:22;9.00;99.90
21508;DHT22;10915;54.352;9.074;2023-02-12T14:36:40;9.00;99.90
21508;DHT22;10915;54.352;9.074;2023-02-12T14:41:51;9.00;99.90
21508;DHT22;10915;54.352;9.074;2023-02-12T14:46:53;9.00;99.90
21508;DHT22;10915;54.352;9.074;2023-02-12T14:49:44;9.00;99.90
21508;DHT22;10915;54.352;9.074;2023-02-12T14:52:13;9.00;99.90
21508;DHT22;10915;54.352;9.074;2023-02-12T15:03:06;8.90;99.90
21508;DHT22;10915;54.352;9.074;2023-02-12T15:05:36;8.90;99.90
21508;DHT22;10915;54.352;9.074;2023-02-12T15:08:27;8.80;99.90
21508;DHT22;10915;54.352;9.074;2023-02-12T15:11:03;8.90;99.90
21508;DHT22;10915;54.352;9.074;2023-02-12T15:16:16;8.80;99.90
21508;DHT22;10915;54.352;9.074;2023-02-12T15:19:30;8.80;99.90
21508;DHT22;10915;54.352;9.074;2023-02-12T15:21:51;8.80;99.90
21508;DHT22;10915;54.352;9.074;2023-02-12T15:24:24;8.80;99.90
21508;DHT22;10915;54.352;9.074;2023-02-12T15:26:52;8.80;99.90
21508;DHT22;10915;54.352;9.074;2023-02-12T15:29:34;8.80;99.90
21508;DHT22;10915;54.352;9.074;2023-02-12T15:32:05;8.80;99.90
21508;DHT22;10915;54.352;9.074;2023-02-12T15:34:34;8.80;99.90
21508;DHT22;10915;54.352;9.074;2023-02-12T15:37:03;8.80;99.90
21508;DHT22;10915;54.352;9.074;2023-02-12T15:39:42;8.80;99.90
21508;DHT22;10915;54.352;9.074;2023-02-12T15:44:49;8.80;99.90
21508;DHT22;10915;54.352;9.074;2023-02-12T15:47:15;8.70;99.90
21508;DHT22;10915;54.352;9.074;2023-02-12T15:49:42;8.70;99.90
21508;DHT22;10915;54.352;9.074;2023-02-12T15:52:18;8.60;99.90
21508;DHT22;10915;54.352;9.074;2023-02-12T15:54:45;8.60;99.90
21508;DHT22;10915;54.352;9.074;2023-02-12T15:57:17;8.60;99.90
21508;DHT22;10915;54.352;9.074;2023-02-12T15:59:52;8.60;99.90
21508;DHT22;10915;54.352;9.074;2023-02-12T16:02:27;8.60;99.90
21508;DHT22;10915;54.352;9.074;2023-02-12T16:04:54;8.60;99.90
21508;DHT22;10915;54.352;9.074;2023-02-12T16:07:21;8.50;99.90
21508;DHT22;10915;54.352;9.074;2023-02-12T16:09:50;8.50;99.90
21508;DHT22;10915;54.352;9.074;2023-02-12T16:12:19;8.50;99.90
21508;DHT22;10915;54.352;9.074;2023-02-12T16:14:52;8.50;99.90
21508;DHT22;10915;54.352;9.074;2023-02-12T16:22:42;8.50;99.90
21508;DHT22;10915;54.352;9.074;2023-02-12T16:25:23;8.40;99.90
21508;DHT22;10915;54.352;9.074;2023-02-12T16:32:53;8.40;99.90
21508;DHT22;10915;54.352;9.074;2023-02-12T16:35:32;8.40;99.90
21508;DHT22;10915;54.352;9.074;2023-02-12T16:46:43;8.30;99.90
21508;DHT22;10915;54.352;9.074;2023-02-12T16:49:17;8.30;99.90
21508;DHT22;10915;54.352;9.074;2023-02-12T16:51:43;8.30;99.90
21508;DHT22;10915;54.352;9.074;2023-02-12T16:54:30;8.20;99.90
21508;DHT22;10915;54.352;9.074;2023-02-12T16:56:56;8.30;99.90
21508;DHT22;10915;54.352;9.074;2023-02-12T16:59:23;8.20;99.90
21508;DHT22;10915;54.352;9.074;2023-02-12T17:02:18;8.30;99.90
21508;DHT22;10915;54.352;9.074;2023-02-12T17:04:44;8.20;99.90
21508;DHT22;10915;54.352;9.074;2023-02-12T17:07:24;8.20;99.90
21508;DHT22;10915;54.352;9.074;2023-02-12T17:09:52;8.30;99.90
21508;DHT22;10915;54.352;9.074;2023-02-12T17:12:18;8.20;99.90
21508;DHT22;10915;54.352;9.074;2023-02-12T17:14:45;8.20;99.90
21508;DHT22;10915;54.352;9.074;2023-02-12T17:17:10;8.20;99.90
21508;DHT22;10915;54.352;9.074;2023-02-12T17:19:36;8.20;99.90
21508;DHT22;10915;54.352;9.074;2023-02-12T17:22:02;8.20;99.90
21508;DHT22;10915;54.352;9.074;2023-02-12T17:24:29;8.20;99.90
21508;DHT22;10915;54.352;9.074;2023-02-12T17:26:56;8.20;99.90
21508;DHT22;10915;54.352;9.074;2023-02-12T17:29:23;8.20;99.90
21508;DHT22;10915;54.352;9.074;2023-02-12T17:31:50;8.20;99.90
21508;DHT22;10915;54.352;9.074;2023-02-12T17:34:20;8.20;99.90
21508;DHT22;10915;54.352;9.074;2023-02-12T17:36:46;8.20;99.90
21508;DHT22;10915;54.352;9.074;2023-02-12T17:39:13;8.20;99.90
21508;DHT22;10915;54.352;9.074;2023-02-12T17:41:39;8.10;99.90
21508;DHT22;10915;54.352;9.074;2023-02-12T17:44:06;8.10;99.90
21508;DHT22;10915;54.352;9.074;2023-02-12T17:46:32;8.10;99.90
21508;DHT22;10915;54.352;9.074;2023-02-12T17:48:58;8.10;99.90
21508;DHT22;10915;54.352;9.074;2023-02-12T17:51:25;8.10;99.90
21508;DHT22;10915;54.352;9.074;2023-02-12T17:53:51;8.10;99.90
21508;DHT22;10915;54.352;9.074;2023-02-12T17:56:19;8.10;99.90
21508;DHT22;10915;54.352;9.074;2023-02-12T17:58:46;8.10;99.90
21508;DHT22;10915;54.352;9.074;2023-02-12T18:01:15;8.10;99.90
21508;DHT22;10915;54.352;9.074;2023-02-12T18:03:41;8.00;99.90
21508;DHT22;10915;54.352;9.074;2023-02-12T18:06:07;8.00;99.90
21508;DHT22;10915;54.352;9.074;2023-02-12T18:08:34;8.00;99.90
21508;DHT22;10915;54.352;9.074;2023-02-12T18:11:09;8.00;99.90
21508;DHT22;10915;54.352;9.074;2023-02-12T18:13:36;8.00;99.90
21508;DHT22;10915;54.352;9.074;2023-02-12T18:16:08;8.00;99.90
21508;DHT22;10915;54.352;9.074;2023-02-12T18:18:35;8.00;99.90
21508;DHT22;10915;54.352;9.074;2023-02-12T18:21:09;8.00;99.90
21508;DHT22;10915;54.352;9.074;2023-02-12T18:23:36;8.00;99.90
21508;DHT22;10915;54.352;9.074;2023-02-12T18:26:09;8.00;99.90
21508;DHT22;10915;54.352;9.074;2023-02-12T18:28:36;8.00;99.90
21508;DHT22;10915;54.352;9.074;2023-02-12T18:31:02;8.00;99.90
21508;DHT22;10915;54.352;9.074;2023-02-12T18:33:28;8.00;99.90
21508;DHT22;10915;54.352;9.074;2023-02-12T18:36:06;8.00;99.90
21508;DHT22;10915;54.352;9.074;2023-02-12T18:38:33;7.90;99.90
21508;DHT22;10915;54.352;9.074;2023-02-12T18:41:14;7.90;99.90
21508;DHT22;10915;54.352;9.074;2023-02-12T18:43:41;8.00;99.90
21508;DHT22;10915;54.352;9.074;2023-02-12T18:46:09;7.90;99.90
21508;DHT22;10915;54.352;9.074;2023-02-12T18:48:35;7.90;99.90
21508;DHT22;10915;54.352;9.074;2023-02-12T18:51:03;7.90;99.90
21508;DHT22;10915;54.352;9.074;2023-02-12T18:53:29;7.90;99.90
21508;DHT22;10915;54.352;9.074;2023-02-12T18:55:55;7.90;99.90
21508;DHT22;10915;54.352;9.074;2023-02-12T18:58:21;7.90;99.90
21508;DHT22;10915;54.352;9.074;2023-02-12T19:00:47;7.90;99.90
21508;DHT22;10915;54.352;9.074;2023-02-12T19:03:14;7.90;99.90
21508;DHT22;10915;54.352;9.074;2023-02-12T19:05:40;7.90;99.90
21508;DHT22;10915;54.352;9.074;2023-02-12T19:08:06;7.90;99.90
21508;DHT22;10915;54.352;9.074;2023-02-12T19:10:32;7.90;99.90
21508;DHT22;10915;54.352;9.074;2023-02-12T19:12:57;7.90;99.90
21508;DHT22;10915;54.352;9.074;2023-02-12T19:15:23;7.90;99.90
21508;DHT22;10915;54.352;9.074;2023-02-12T19:17:49;7.90;99.90
21508;DHT22;10915;54.352;9.074;2023-02-12T19:20:15;7.80;99.90
21508;DHT22;10915;54.352;9.074;2023-02-12T19:22:42;7.80;99.90
21508;DHT22;10915;54.352;9.074;2023-02-12T19:25:08;7.80;99.90
21508;DHT22;10915;54.352;9.074;2023-02-12T19:27:34;7.80;99.90
21508;DHT22;10915;54.352;9.074;2023-02-12T19:30:00;7.80;99.90
21508;DHT22;10915;54.352;9.074;2023-02-12T19:32:26;7.80;99.90
21508;DHT22;10915;54.352;9.074;2023-02-12T19:34:52;7.80;99.90
21508;DHT22;10915;54.352;9.074;2023-02-12T19:37:17;7.80;99.90
21508;DHT22;10915;54.352;9.074;2023-02-12T19:39:43;7.80;99.90
21508;DHT22;10915;54.352;9.074;2023-02-12T19:42:09;7.80;99.90
21508;DHT22;10915;54.352;9.074;2023-02-12T19:44:37;7.80;99.90
21508;DHT22;10915;54.352;9.074;2023-02-12T19:47:05;7.80;99.90
21508;DHT22;10915;54.352;9.074;2023-02-12T19:49:31;7.80;99.90